createdAt,value
2022-11-24T00:03:33.526Z,91.59
2022-11-24T00:08:39.313Z,91.68
2022-11-24T00:13:43.820Z,91.73
2022-11-24T00:18:49.157Z,91.74
2022-11-24T00:23:52.866Z,91.52
2022-11-24T00:28:58.599Z,91.25
2022-11-24T00:34:05.419Z,91.45
2022-11-24T00:39:16.021Z,91.43
2022-11-24T00:44:19.172Z,91.27
2022-11-24T00:49:22.168Z,91.60
2022-11-24T00:54:25.340Z,91.70
2022-11-24T00:59:28.404Z,91.31
2022-11-24T01:04:31.708Z,91.22
2022-11-24T01:09:35.135Z,91.37
2022-11-24T01:14:38.236Z,91.26
2022-11-24T01:19:41.269Z,91.27
2022-11-24T01:24:44.429Z,91.16
2022-11-24T01:29:47.632Z,91.07
2022-11-24T01:34:50.679Z,91.17
2022-11-24T01:39:53.716Z,91.28
2022-11-24T01:45:35.153Z,91.30
2022-11-24T01:50:38.306Z,91.32
2022-11-24T01:55:41.763Z,91.11
2022-11-24T02:00:46.127Z,91.26
2022-11-24T02:06:08.002Z,91.44
2022-11-24T02:11:11.408Z,91.22
2022-11-24T02:16:14.474Z,90.83
2022-11-24T02:21:18.377Z,90.71
2022-11-24T02:26:46.744Z,90.94
2022-11-24T02:31:55.580Z,91.35
2022-11-24T02:36:58.632Z,91.34
2022-11-24T02:42:08.590Z,91.34
2022-11-24T02:47:13.199Z,91.29
2022-11-24T02:52:16.618Z,91.07
2022-11-24T02:57:19.604Z,91.15
2022-11-24T03:02:23.388Z,91.14
2022-11-24T03:07:26.568Z,91.07
2022-11-24T03:12:29.631Z,91.00
2022-11-24T03:17:32.616Z,91.49
2022-11-24T03:22:37.100Z,91.31
2022-11-24T03:27:40.174Z,91.39
2022-11-24T03:32:43.245Z,91.37
2022-11-24T03:37:46.321Z,91.48
2022-11-24T03:42:49.352Z,91.35
2022-11-24T03:47:52.759Z,91.09
2022-11-24T03:52:55.933Z,91.01
2022-11-24T03:57:58.980Z,91.26
2022-11-24T04:03:02.072Z,91.81
2022-11-24T04:08:06.114Z,91.55
2022-11-24T04:13:17.631Z,91.20
2022-11-24T04:18:21.179Z,91.29
2022-11-24T04:23:24.234Z,91.34
2022-11-24T04:28:27.207Z,91.52
2022-11-24T04:33:30.222Z,91.50
2022-11-24T04:39:24.422Z,91.42
2022-11-24T04:43:56.251Z,91.53
2022-11-24T04:48:59.307Z,91.17
2022-11-24T04:54:02.302Z,91.22
2022-11-24T04:59:08.360Z,91.28
2022-11-24T05:04:14.240Z,91.16
2022-11-24T05:09:17.989Z,91.39
2022-11-24T05:14:21.087Z,91.58
2022-11-24T05:19:27.319Z,91.47
2022-11-24T05:24:33.150Z,91.57
2022-11-24T05:29:37.031Z,91.60
2022-11-24T05:34:39.951Z,91.99
2022-11-24T05:39:46.581Z,91.92
2022-11-24T05:44:49.602Z,91.76
2022-11-24T05:49:52.654Z,91.70
2022-11-24T05:54:55.468Z,91.39
2022-11-24T05:59:58.272Z,91.43
2022-11-24T06:05:01.325Z,91.55
2022-11-24T06:10:04.482Z,91.61
2022-11-24T06:15:07.718Z,91.62
2022-11-24T06:20:11.481Z,91.37
2022-11-24T06:25:14.592Z,91.19
2022-11-24T06:30:17.461Z,90.79
2022-11-24T06:35:20.244Z,90.68
2022-11-24T06:40:23.357Z,90.74
2022-11-24T06:45:26.352Z,90.59
2022-11-24T06:50:33.388Z,90.15
2022-11-24T06:55:36.751Z,90.24
2022-11-24T07:00:50.055Z,89.97
2022-11-24T07:05:59.671Z,89.75
2022-11-24T07:11:07.542Z,89.54
2022-11-24T07:16:12.021Z,89.39
2022-11-24T07:21:16.464Z,89.41
2022-11-24T07:26:20.389Z,89.08
2022-11-24T07:31:29.706Z,88.83
2022-11-24T07:36:33.980Z,88.78
2022-11-24T07:41:37.118Z,88.77
2022-11-24T07:46:40.611Z,88.43
2022-11-24T07:51:43.924Z,88.10
2022-11-24T07:56:54.062Z,87.98
2022-11-24T08:02:03.611Z,88.02
2022-11-24T08:07:13.323Z,87.81
2022-11-24T08:12:21.497Z,87.56
2022-11-24T08:17:24.522Z,87.30
2022-11-24T08:22:30.167Z,87.24
2022-11-24T08:27:33.097Z,87.15
2022-11-24T08:32:35.990Z,86.91
2022-11-24T08:37:43.015Z,86.77
2022-11-24T08:42:50.450Z,86.43
2022-11-24T08:47:54.551Z,86.43
2022-11-24T08:52:57.743Z,86.48
2022-11-24T08:58:03.080Z,86.23
2022-11-24T09:03:06.447Z,86.40
2022-11-24T09:08:09.834Z,86.17
2022-11-24T09:13:12.933Z,85.80
2022-11-24T09:18:18.036Z,85.92
2022-11-24T09:23:20.795Z,86.05
2022-11-24T09:28:23.578Z,86.05
2022-11-24T09:33:26.462Z,85.92
2022-11-24T09:38:30.926Z,85.88
2022-11-24T09:44:00.188Z,85.81
2022-11-24T09:49:08.170Z,85.93
2022-11-24T09:54:23.249Z,85.76
2022-11-24T09:59:27.754Z,84.79
2022-11-24T10:04:43.654Z,84.88
2022-11-24T10:10:07.912Z,84.78
2022-11-24T10:15:54.997Z,84.75
2022-11-24T10:21:34.933Z,84.23
2022-11-24T10:26:40.885Z,84.52
2022-11-24T10:31:45.882Z,84.10
2022-11-24T10:37:11.192Z,84.07
2022-11-24T10:42:37.335Z,84.29
2022-11-24T10:47:48.669Z,84.35
2022-11-24T10:53:19.120Z,84.26
2022-11-24T10:58:35.866Z,84.28
2022-11-24T11:04:01.772Z,84.31
2022-11-24T11:09:07.649Z,84.08
2022-11-24T11:14:13.127Z,84.36
2022-11-24T11:20:11.054Z,84.86
2022-11-24T11:25:28.826Z,84.45
2022-11-24T11:36:02.471Z,84.45
2022-11-24T11:41:07.569Z,84.11
2022-11-24T11:46:13.639Z,84.53
2022-11-24T11:57:22.726Z,84.33
2022-11-24T12:02:53.368Z,84.78
2022-11-24T12:08:19.203Z,85.20
2022-11-24T12:13:43.272Z,85.21
2022-11-24T12:18:58.206Z,85.36
2022-11-24T12:24:01.961Z,85.27
2022-11-24T12:29:26.531Z,85.13
2022-11-24T12:34:34.015Z,85.32
2022-11-24T12:39:58.625Z,85.55
2022-11-24T12:45:14.784Z,85.60
2022-11-24T12:50:21.698Z,85.60
2022-11-24T12:55:25.650Z,85.76
2022-11-24T13:01:01.748Z,85.50
2022-11-24T13:06:15.717Z,85.78
2022-11-24T13:11:21.407Z,85.72
2022-11-24T13:16:53.466Z,85.67
2022-11-24T13:21:51.100Z,85.85
2022-11-24T13:27:16.302Z,85.72
2022-11-24T13:32:19.179Z,85.56
2022-11-24T13:37:34.896Z,85.65
2022-11-24T13:43:11.365Z,85.91
2022-11-24T13:48:20.996Z,85.90
2022-11-24T13:53:45.451Z,86.08
2022-11-24T13:58:51.922Z,86.18
2022-11-24T14:04:35.252Z,86.35
2022-11-24T14:09:45.655Z,86.09
2022-11-24T14:14:50.477Z,86.36
2022-11-24T14:19:58.472Z,86.33
2022-11-24T14:25:02.799Z,86.40
2022-11-24T14:30:13.485Z,86.77
2022-11-24T14:35:34.129Z,87.00
2022-11-24T14:40:43.285Z,87.15
2022-11-24T14:46:01.021Z,87.25
2022-11-24T14:51:25.129Z,87.35
2022-11-24T14:56:39.303Z,87.44
2022-11-24T15:01:42.137Z,87.44
2022-11-24T15:06:48.648Z,87.38
2022-11-24T15:11:51.591Z,87.69
2022-11-24T15:16:54.404Z,87.87
2022-11-24T15:21:57.289Z,88.13
2022-11-24T15:27:01.191Z,88.41
2022-11-24T15:32:15.560Z,88.38
2022-11-24T15:37:18.615Z,88.07
2022-11-24T15:42:21.384Z,87.87
2022-11-24T15:47:24.148Z,87.69
2022-11-24T15:52:26.901Z,87.73
2022-11-24T15:57:30.083Z,87.91
2022-11-24T16:02:33.047Z,87.99
2022-11-24T16:07:36.023Z,87.88
2022-11-24T16:12:38.857Z,87.74
2022-11-24T16:17:41.647Z,88.01
2022-11-24T16:22:44.699Z,88.35
2022-11-24T16:27:48.556Z,88.64
2022-11-24T16:32:51.460Z,88.87
2022-11-24T16:37:54.339Z,88.96
2022-11-24T16:42:58.506Z,89.11
2022-11-24T16:48:01.363Z,88.83
2022-11-24T16:53:04.204Z,88.94
2022-11-24T16:58:06.996Z,89.07
2022-11-24T17:03:09.865Z,89.05
2022-11-24T17:08:12.802Z,89.24
2022-11-24T17:13:15.971Z,89.35
2022-11-24T17:18:25.885Z,89.61
2022-11-24T17:23:29.634Z,89.47
2022-11-24T17:28:34.611Z,89.21
2022-11-24T17:33:37.474Z,89.15
2022-11-24T17:38:40.322Z,88.83
2022-11-24T17:43:43.749Z,88.69
2022-11-24T17:48:47.203Z,88.30
2022-11-24T17:53:52.136Z,88.52
2022-11-24T17:58:59.499Z,88.59
2022-11-24T18:04:02.813Z,88.50
2022-11-24T18:09:06.284Z,88.65
2022-11-24T18:14:10.020Z,88.81
2022-11-24T18:19:13.001Z,88.56
2022-11-24T18:24:22.557Z,88.85
2022-11-24T18:29:26.937Z,89.11
2022-11-24T18:34:29.862Z,89.47
2022-11-24T18:39:32.692Z,89.34
2022-11-24T18:44:38.045Z,89.48
2022-11-24T18:49:40.828Z,89.19
2022-11-24T18:54:45.428Z,88.98
2022-11-24T18:59:48.326Z,89.26
2022-11-24T19:04:51.400Z,89.67
2022-11-24T19:09:54.190Z,89.89
2022-11-24T19:14:56.927Z,89.99
2022-11-24T19:19:59.691Z,89.74
2022-11-24T19:25:02.477Z,89.99
2022-11-24T19:30:06.378Z,89.79
2022-11-24T19:35:09.713Z,89.76
2022-11-24T19:40:13.547Z,90.02
2022-11-24T19:45:16.351Z,90.04
2022-11-24T19:50:19.251Z,90.07
2022-11-24T19:55:23.020Z,89.68
2022-11-24T20:00:30.608Z,89.47
2022-11-24T20:05:34.921Z,89.34
2022-11-24T20:10:40.001Z,89.20
2022-11-24T20:15:42.774Z,89.04
2022-11-24T20:20:45.760Z,88.98
2022-11-24T20:25:48.581Z,88.46
2022-11-24T20:30:51.483Z,88.95
2022-11-24T20:35:54.600Z,89.01
2022-11-24T20:41:11.253Z,89.22
2022-11-24T20:46:20.509Z,88.72
2022-11-24T20:51:26.491Z,89.11
2022-11-24T20:56:35.310Z,89.10
2022-11-24T21:01:42.540Z,88.44
2022-11-24T21:06:46.212Z,88.75
2022-11-24T21:11:49.182Z,88.73
2022-11-24T21:16:52.035Z,88.78
2022-11-24T21:21:54.815Z,89.21
2022-11-24T21:26:57.940Z,89.29
2022-11-24T21:32:00.820Z,89.29
2022-11-24T21:37:05.322Z,89.03
2022-11-24T21:42:08.210Z,89.15
2022-11-24T21:47:10.995Z,89.36
2022-11-24T21:52:13.889Z,89.48
2022-11-24T21:57:17.489Z,89.96
2022-11-24T22:02:20.349Z,89.86
2022-11-24T22:07:23.255Z,89.81
2022-11-24T22:12:26.312Z,89.81
2022-11-24T22:17:31.052Z,90.02
2022-11-24T22:22:33.859Z,89.61
2022-11-24T22:27:36.744Z,89.82
2022-11-24T22:32:39.514Z,89.85
2022-11-24T22:37:42.286Z,89.74
2022-11-24T22:42:45.802Z,89.64
2022-11-24T22:47:48.555Z,89.10
2022-11-24T22:52:51.497Z,89.12
2022-11-24T22:57:56.985Z,89.66
2022-11-24T23:03:00.227Z,89.58
2022-11-24T23:08:03.323Z,89.14
2022-11-24T23:13:06.139Z,89.16
2022-11-24T23:18:08.933Z,89.45
2022-11-24T23:23:11.978Z,89.50
2022-11-24T23:28:14.804Z,89.49
2022-11-24T23:33:17.676Z,89.20
2022-11-24T23:38:20.457Z,89.35
2022-11-24T23:43:23.350Z,89.46
2022-11-24T23:48:26.455Z,89.21
2022-11-24T23:53:32.793Z,88.91
2022-11-24T23:58:35.573Z,89.25
